PWSweather.com
Personal Weather Stations
Station Observations
MELLIEHA
Qortin, MelliehaMT

QortinMelliehaMT

Lat: 35.963031, Lon: 14.371647

Elevation: 378

Station Type: WMR200

http://www.it-temp.com

High Low Average
Temperature 68.9°F20.5°C 55.9°F13.3°C 61.0°F16.1°C
Dew Point 46.9°F8.3°C 26.5°F-3.1°C 33.3°F0.7°C
Winds 7.8 mph 12.6 kmh 2.2 mph 3.5 kmh 5.0 mph WSW8.0 kmh WSW
Wind Gusts 10.9 mph17.5 kmh 4.5 mph7.2 kmh 8.0 mph12.9 kmh
Humidity 68% 23% 37%
Pressure 29.91 in1012.9 mb 29.80 in1009.1 mb -
Precipitation 0.00 in0.0 mm - -
Hour Temp Dew Point Humidity Winds Wind Gusts Pressure Precip Precip Rate Daily Precip Total
12:00 AM 57.4°F14.1°C 46.9°F8.3°C 68% 5.5 mph NNW8.9 kmh NNW 7.8 mph12.6 kmh 29.91 in1012.9 mb 0.00 in0.0 mm 0.00 in/hr0.0 mm/hr 0.00 in0.0 mm
01:00 AM 56.8°F13.8°C 39.4°F4.1°C 52% 6.0 mph WNW9.7 kmh WNW 8.7 mph14.0 kmh 29.91 in1012.9 mb 0.00 in0.0 mm 0.00 in/hr0.0 mm/hr 0.00 in0.0 mm
02:00 AM 56.5°F13.6°C 38.1°F3.4°C 50% 5.1 mph NNW8.2 kmh NNW 9.7 mph15.6 kmh 29.86 in1011.2 mb 0.00 in0.0 mm 0.00 in/hr0.0 mm/hr 0.00 in0.0 mm
03:00 AM 56.3°F13.5°C 38.9°F3.8°C 52% 7.1 mph NW11.4 kmh NW 10.2 mph16.4 kmh 29.86 in1011.2 mb 0.00 in0.0 mm 0.00 in/hr0.0 mm/hr 0.00 in0.0 mm
04:00 AM 56.3°F13.5°C 38.4°F3.6°C 51% 5.9 mph NW9.5 kmh NW 8.1 mph13.0 kmh 29.88 in1011.9 mb 0.00 in0.0 mm 0.00 in/hr0.0 mm/hr 0.00 in0.0 mm
05:00 AM 55.9°F13.3°C 38.6°F3.7°C 52% 6.6 mph NW10.6 kmh NW 10.2 mph16.4 kmh 29.88 in1011.9 mb 0.00 in0.0 mm 0.00 in/hr0.0 mm/hr 0.00 in0.0 mm
06:00 AM 56.8°F13.8°C 38.9°F3.8°C 51% 3.5 mph NW5.6 kmh NW 7.6 mph12.2 kmh 29.91 in1012.9 mb 0.00 in0.0 mm 0.00 in/hr0.0 mm/hr 0.00 in0.0 mm
07:00 AM 59.8°F15.4°C 34.7°F1.5°C 39% 2.8 mph NW4.5 kmh NW 6.4 mph10.3 kmh 29.91 in1012.9 mb 0.00 in0.0 mm 0.00 in/hr0.0 mm/hr 0.00 in0.0 mm
08:00 AM 64.2°F17.9°C 29.5°F-1.4°C 27% 2.7 mph NW4.3 kmh NW 6.0 mph9.7 kmh 29.88 in1011.9 mb 0.00 in0.0 mm 0.00 in/hr0.0 mm/hr 0.00 in0.0 mm
09:00 AM 67.7°F19.8°C 28.6°F-1.9°C 23% 4.5 mph WNW7.2 kmh WNW 6.4 mph10.3 kmh 29.88 in1011.9 mb 0.00 in0.0 mm 0.00 in/hr0.0 mm/hr 0.00 in0.0 mm
10:00 AM 66.6°F19.2°C 27.6°F-2.4°C 23% 6.9 mph W11.1 kmh W 8.7 mph14.0 kmh 29.91 in1012.9 mb 0.00 in0.0 mm 0.00 in/hr0.0 mm/hr 0.00 in0.0 mm
11:00 AM 66.6°F19.2°C 27.6°F-2.4°C 23% 6.7 mph WSW10.8 kmh WSW 10.9 mph17.5 kmh 29.88 in1011.9 mb 0.00 in0.0 mm 0.00 in/hr0.0 mm/hr 0.00 in0.0 mm
12:00 PM 66.9°F19.4°C 27.9°F-2.3°C 23% 3.1 mph WSW5.0 kmh WSW 7.4 mph11.9 kmh 29.91 in1012.9 mb 0.00 in0.0 mm 0.00 in/hr0.0 mm/hr 0.00 in0.0 mm
01:00 PM 68.9°F20.5°C 29.5°F-1.4°C 23% 5.6 mph WSW9.0 kmh WSW 8.5 mph13.7 kmh 29.88 in1011.9 mb 0.00 in0.0 mm 0.00 in/hr0.0 mm/hr 0.00 in0.0 mm
02:00 PM 67.7°F19.8°C 28.6°F-1.9°C 23% 5.9 mph W9.5 kmh W 7.1 mph11.4 kmh 29.88 in1011.9 mb 0.00 in0.0 mm 0.00 in/hr0.0 mm/hr 0.00 in0.0 mm
03:00 PM 64.2°F17.9°C 26.6°F-3.0°C 24% 7.8 mph SW12.6 kmh SW 8.5 mph13.7 kmh 29.82 in1009.8 mb 0.00 in0.0 mm 0.00 in/hr0.0 mm/hr 0.00 in0.0 mm
04:00 PM 64.1°F17.8°C 26.5°F-3.1°C 24% 7.8 mph WSW12.6 kmh WSW 9.8 mph15.8 kmh 29.82 in1009.8 mb 0.00 in0.0 mm 0.00 in/hr0.0 mm/hr 0.00 in0.0 mm
05:00 PM 61.3°F16.3°C 27.0°F-2.8°C 27% 6.0 mph SW9.7 kmh SW 7.1 mph11.4 kmh 29.86 in1011.2 mb 0.00 in0.0 mm 0.00 in/hr0.0 mm/hr 0.00 in0.0 mm
06:00 PM 59.5°F15.3°C 30.4°F-0.9°C 33% 6.1 mph SW9.8 kmh SW 6.4 mph10.3 kmh 29.86 in1011.2 mb 0.00 in0.0 mm 0.00 in/hr0.0 mm/hr 0.00 in0.0 mm
07:00 PM 58.9°F14.9°C 31.2°F-0.4°C 35% 3.8 mph SSW6.1 kmh SSW 4.5 mph7.2 kmh 29.86 in1011.2 mb 0.00 in0.0 mm 0.00 in/hr0.0 mm/hr 0.00 in0.0 mm
08:00 PM 58.5°F14.7°C 30.9°F-0.6°C 35% 2.2 mph ENE3.5 kmh ENE 5.6 mph9.0 kmh 29.82 in1009.8 mb 0.00 in0.0 mm 0.00 in/hr0.0 mm/hr 0.00 in0.0 mm
09:00 PM 58.1°F14.5°C 36.9°F2.7°C 45% 3.3 mph E5.3 kmh E 5.6 mph9.0 kmh 29.82 in1009.8 mb 0.00 in0.0 mm 0.00 in/hr0.0 mm/hr 0.00 in0.0 mm
10:00 PM 57.7°F14.3°C 37.1°F2.8°C 46% 5.0 mph ESE8.0 kmh ESE 7.6 mph12.2 kmh 29.80 in1009.1 mb 0.00 in0.0 mm 0.00 in/hr0.0 mm/hr 0.00 in0.0 mm
11:00 PM 57.6°F14.2°C 39.0°F3.9°C 50% 6.1 mph SE9.8 kmh SE 9.0 mph14.5 kmh 29.80 in1009.1 mb 0.00 in0.0 mm 0.00 in/hr0.0 mm/hr 0.00 in0.0 mm